createdAt,value
2019-05-07T00:02:09.106Z,90.50
2019-05-07T00:04:37.799Z,90.60
2019-05-07T00:07:07.309Z,91.00
2019-05-07T00:09:35.927Z,91.60
2019-05-07T00:12:05.286Z,91.50
2019-05-07T00:14:34.623Z,92.00
2019-05-07T00:17:04.589Z,91.30
2019-05-07T00:19:33.203Z,91.30
2019-05-07T00:22:02.386Z,91.10
2019-05-07T00:24:33.102Z,91.50
2019-05-07T00:27:02.778Z,91.40
2019-05-07T00:29:32.148Z,91.00
2019-05-07T00:32:02.843Z,91.40
2019-05-07T00:34:32.863Z,90.80
2019-05-07T00:37:07.049Z,90.70
2019-05-07T00:39:42.375Z,90.40
2019-05-07T00:42:18.192Z,90.80
2019-05-07T00:45:14.115Z,90.80
2019-05-07T00:47:30.062Z,90.90
2019-05-07T00:50:00.231Z,91.00
2019-05-07T00:52:28.716Z,90.90
2019-05-07T00:54:57.189Z,91.00
2019-05-07T00:57:25.680Z,90.80
2019-05-07T00:59:54.219Z,90.80
2019-05-07T01:02:23.349Z,90.90
2019-05-07T01:04:53.221Z,91.20
2019-05-07T01:07:22.859Z,91.00
2019-05-07T01:09:52.357Z,91.60
2019-05-07T01:12:22.216Z,91.60
2019-05-07T01:14:52.779Z,91.50
2019-05-07T01:17:22.688Z,91.10
2019-05-07T01:19:53.292Z,91.50
2019-05-07T01:22:22.228Z,91.80
2019-05-07T01:24:52.459Z,92.60
2019-05-07T01:27:22.587Z,92.30
2019-05-07T01:29:52.808Z,92.30
2019-05-07T01:32:23.108Z,92.60
2019-05-07T01:34:55.611Z,92.40
2019-05-07T01:37:24.152Z,92.50
2019-05-07T01:39:53.050Z,92.10
2019-05-07T01:42:22.254Z,91.80
2019-05-07T01:44:52.864Z,91.70
2019-05-07T01:47:20.968Z,91.60
2019-05-07T01:49:49.524Z,91.40
2019-05-07T01:52:17.995Z,91.40
2019-05-07T01:54:47.599Z,91.20
2019-05-07T01:57:16.161Z,91.30
2019-05-07T01:59:44.641Z,91.10
2019-05-07T02:02:14.751Z,91.20
2019-05-07T02:04:47.885Z,91.30
2019-05-07T02:07:26.669Z,91.30
2019-05-07T02:09:59.807Z,91.30
2019-05-07T02:12:31.786Z,91.20
2019-05-07T02:15:02.476Z,91.30
2019-05-07T02:17:32.134Z,91.40
2019-05-07T02:20:02.533Z,91.60
2019-05-07T02:22:32.046Z,92.00
2019-05-07T02:25:03.099Z,91.90
2019-05-07T02:27:32.658Z,91.50
2019-05-07T02:30:04.090Z,92.00
2019-05-07T02:32:33.459Z,91.70
2019-05-07T02:35:03.973Z,91.70
2019-05-07T02:37:46.504Z,91.90
2019-05-07T02:40:14.163Z,92.50
2019-05-07T02:42:44.239Z,92.30
2019-05-07T02:45:19.609Z,92.00
2019-05-07T02:47:48.215Z,91.80
2019-05-07T02:50:18.404Z,92.00
2019-05-07T02:52:53.669Z,92.30
2019-05-07T02:55:35.207Z,92.20
2019-05-07T02:58:03.968Z,92.60
2019-05-07T03:00:33.373Z,92.50
2019-05-07T03:03:04.217Z,92.40
2019-05-07T03:05:35.024Z,92.70
2019-05-07T03:08:03.649Z,93.20
2019-05-07T03:10:33.946Z,93.00
2019-05-07T03:13:03.256Z,93.20
2019-05-07T03:15:33.250Z,93.10
2019-05-07T03:18:03.444Z,92.70
2019-05-07T03:20:46.373Z,92.50
2019-05-07T03:23:16.553Z,92.50
2019-05-07T03:25:49.418Z,92.30
2019-05-07T03:28:18.949Z,92.40
2019-05-07T03:30:56.633Z,92.70
2019-05-07T03:33:27.144Z,93.30
2019-05-07T03:35:57.486Z,92.80
2019-05-07T03:38:26.048Z,92.50
2019-05-07T03:40:54.678Z,92.50
2019-05-07T03:43:24.851Z,93.00
2019-05-07T03:45:58.029Z,92.80
2019-05-07T03:48:28.032Z,92.60
2019-05-07T03:50:56.593Z,92.50
2019-05-07T03:53:25.139Z,92.80
2019-05-07T03:55:54.128Z,93.00
2019-05-07T03:58:23.825Z,92.70
2019-05-07T04:00:53.559Z,92.40
2019-05-07T04:03:24.332Z,92.20
2019-05-07T04:05:53.331Z,92.00
2019-05-07T04:08:23.712Z,92.10
2019-05-07T04:10:53.842Z,92.70
2019-05-07T04:13:23.986Z,92.80
2019-05-07T04:15:52.752Z,92.90
2019-05-07T04:18:23.633Z,92.70
2019-05-07T04:20:53.964Z,91.70
2019-05-07T04:23:23.222Z,86.70
2019-05-07T04:25:53.556Z,79.60
2019-05-07T04:28:26.337Z,74.20
2019-05-07T04:30:54.416Z,72.80
2019-05-07T04:33:33.669Z,69.30
2019-05-07T04:36:03.937Z,65.40
2019-05-07T04:38:33.325Z,59.20
2019-05-07T04:41:03.860Z,56.80
2019-05-07T04:43:33.593Z,56.40
2019-05-07T04:46:03.267Z,55.00
2019-05-07T04:48:34.147Z,56.60
2019-05-07T04:51:03.900Z,57.80
2019-05-07T04:53:32.997Z,61.30
2019-05-07T04:56:03.324Z,68.70
2019-05-07T04:58:33.855Z,73.00
2019-05-07T05:01:03.229Z,75.20
2019-05-07T05:03:34.672Z,79.00
2019-05-07T05:06:02.730Z,82.20
2019-05-07T05:08:32.500Z,85.70
2019-05-07T05:11:03.366Z,85.90
2019-05-07T05:13:33.136Z,86.90
2019-05-07T05:16:03.324Z,88.70
2019-05-07T05:18:32.964Z,87.90
2019-05-07T05:21:15.412Z,88.20
2019-05-07T05:23:45.521Z,90.00
2019-05-07T05:26:14.015Z,90.50
2019-05-07T05:28:42.488Z,89.50
2019-05-07T05:31:12.686Z,87.80
2019-05-07T05:33:42.023Z,87.90
2019-05-07T05:36:12.630Z,89.10
2019-05-07T05:38:42.395Z,87.90
2019-05-07T05:41:12.260Z,88.70
2019-05-07T05:43:42.669Z,89.20
2019-05-07T05:46:12.820Z,88.30
2019-05-07T05:48:42.501Z,86.60
2019-05-07T05:51:15.781Z,88.50
2019-05-07T05:53:45.909Z,85.30
2019-05-07T05:56:18.696Z,83.50
2019-05-07T05:58:47.932Z,79.20
2019-05-07T06:01:18.040Z,75.70
2019-05-07T06:03:53.922Z,75.30
2019-05-07T06:06:30.120Z,69.20
2019-05-07T06:09:08.861Z,64.50
2019-05-07T06:11:39.037Z,61.90
2019-05-07T06:14:12.937Z,60.40
2019-05-07T06:16:48.705Z,59.00
2019-05-07T06:19:18.839Z,59.20
2019-05-07T06:21:54.464Z,58.70
2019-05-07T06:24:42.662Z,62.70
2019-05-07T06:27:12.271Z,62.50
2019-05-07T06:29:42.605Z,63.00
2019-05-07T06:32:12.944Z,61.60
2019-05-07T06:34:44.238Z,62.90
2019-05-07T06:37:11.929Z,59.70
2019-05-07T06:39:47.624Z,59.10
2019-05-07T06:42:26.636Z,59.40
2019-05-07T06:45:12.973Z,61.60
2019-05-07T06:47:42.456Z,58.30
2019-05-07T06:50:12.514Z,54.40
2019-05-07T06:52:42.550Z,58.70
2019-05-07T06:55:12.208Z,56.90
2019-05-07T06:57:42.592Z,54.60
2019-05-07T07:00:25.207Z,53.30
2019-05-07T07:03:12.697Z,52.00
2019-05-07T07:05:43.044Z,52.70
2019-05-07T07:08:28.960Z,54.50
2019-05-07T07:11:17.056Z,54.40
2019-05-07T07:13:45.621Z,56.10
2019-05-07T07:16:14.096Z,54.50
2019-05-07T07:18:52.001Z,53.60
2019-05-07T07:21:12.792Z,53.50
2019-05-07T07:23:42.984Z,50.90
2019-05-07T07:26:12.613Z,49.60
2019-05-07T07:28:42.977Z,47.70
2019-05-07T07:31:19.283Z,50.20
2019-05-07T07:33:49.408Z,46.90
2019-05-07T07:36:18.615Z,51.00
2019-05-07T07:38:47.108Z,46.60
2019-05-07T07:41:17.221Z,49.50
2019-05-07T07:43:45.703Z,46.90
2019-05-07T07:46:16.522Z,49.60
2019-05-07T07:48:44.356Z,44.30
2019-05-07T07:51:13.843Z,46.80
2019-05-07T07:53:42.608Z,45.00
2019-05-07T07:56:28.704Z,46.50
2019-05-07T07:59:13.629Z,49.10
2019-05-07T08:01:52.663Z,48.30
2019-05-07T08:04:22.850Z,46.30
2019-05-07T08:06:53.209Z,47.80
2019-05-07T08:09:24.136Z,45.90
2019-05-07T08:11:52.706Z,45.00
2019-05-07T08:14:21.934Z,42.60
2019-05-07T08:16:52.774Z,45.40
2019-05-07T08:19:24.388Z,48.00
2019-05-07T08:21:52.199Z,48.80
2019-05-07T08:24:22.566Z,45.70
2019-05-07T08:26:51.908Z,46.60
2019-05-07T08:29:22.478Z,44.70
2019-05-07T08:31:55.100Z,40.20
2019-05-07T08:34:24.425Z,48.00
2019-05-07T08:36:52.916Z,43.70
2019-05-07T08:39:22.360Z,44.60
2019-05-07T08:41:52.746Z,45.70
2019-05-07T08:44:22.952Z,45.70
2019-05-07T08:47:12.197Z,46.10
2019-05-07T08:49:43.398Z,39.10
2019-05-07T08:52:12.168Z,35.60
2019-05-07T08:54:42.641Z,36.90
2019-05-07T08:57:12.167Z,38.70
2019-05-07T08:59:43.753Z,42.70
2019-05-07T09:02:12.609Z,43.50
2019-05-07T09:04:41.756Z,44.00
2019-05-07T09:07:12.820Z,45.50
2019-05-07T09:09:42.618Z,42.00
2019-05-07T09:12:12.390Z,42.20
2019-05-07T09:14:42.548Z,42.70
2019-05-07T09:17:12.712Z,42.20
2019-05-07T09:19:50.956Z,40.70
2019-05-07T09:22:12.696Z,42.10
2019-05-07T09:24:42.370Z,37.50
2019-05-07T09:27:12.936Z,34.00
2019-05-07T09:29:45.805Z,35.30
2019-05-07T09:32:17.840Z,39.70
2019-05-07T09:34:48.016Z,36.40
2019-05-07T09:37:24.291Z,33.90
2019-05-07T09:39:52.853Z,32.30
2019-05-07T09:42:22.595Z,35.50
2019-05-07T09:44:52.926Z,37.90
2019-05-07T09:47:22.001Z,36.80
2019-05-07T09:50:01.989Z,34.90
2019-05-07T09:52:22.655Z,30.50
2019-05-07T09:54:52.201Z,31.40
2019-05-07T09:57:28.270Z,29.70
2019-05-07T09:59:53.119Z,30.80
2019-05-07T10:02:22.671Z,34.90
2019-05-07T10:04:52.584Z,33.10
2019-05-07T10:07:22.279Z,32.60
2019-05-07T10:09:52.337Z,35.70
2019-05-07T10:12:22.848Z,39.40
2019-05-07T10:14:52.300Z,42.40
2019-05-07T10:17:25.472Z,44.80
2019-05-07T10:19:54.011Z,45.10
2019-05-07T10:22:22.827Z,45.40
2019-05-07T10:24:52.252Z,45.40
2019-05-07T10:27:21.805Z,46.50
2019-05-07T10:29:50.537Z,44.60
2019-05-07T10:32:19.024Z,41.70
2019-05-07T10:34:48.067Z,43.90
2019-05-07T10:37:16.707Z,41.20
2019-05-07T10:39:45.241Z,39.20
2019-05-07T10:42:13.841Z,38.80
2019-05-07T10:44:46.516Z,38.90
2019-05-07T10:47:34.436Z,36.10
2019-05-07T10:50:33.077Z,34.50
2019-05-07T10:52:52.653Z,34.70
2019-05-07T10:55:22.268Z,40.60
2019-05-07T10:57:52.824Z,40.40
2019-05-07T11:00:24.309Z,38.50
2019-05-07T11:02:52.950Z,39.80
2019-05-07T11:05:21.942Z,37.30
2019-05-07T11:07:50.729Z,35.50
2019-05-07T11:10:19.522Z,34.30
2019-05-07T11:12:48.056Z,37.50
2019-05-07T11:15:16.886Z,37.20
2019-05-07T11:17:47.002Z,35.20
2019-05-07T11:20:16.071Z,35.80
2019-05-07T11:22:44.686Z,39.50
2019-05-07T11:25:13.416Z,40.70
2019-05-07T11:27:42.233Z,35.70
2019-05-07T11:30:12.177Z,36.90
2019-05-07T11:32:42.816Z,34.40
2019-05-07T11:35:11.739Z,34.70
2019-05-07T11:37:44.133Z,37.20
2019-05-07T11:40:13.138Z,34.10
2019-05-07T11:43:02.495Z,33.10
2019-05-07T11:45:47.712Z,33.20
2019-05-07T11:48:17.449Z,38.10
2019-05-07T11:51:04.375Z,35.20
2019-05-07T11:53:34.373Z,36.50
2019-05-07T11:56:02.841Z,38.10
2019-05-07T11:58:32.567Z,32.90
2019-05-07T12:01:08.802Z,34.70
2019-05-07T12:03:37.362Z,32.40
2019-05-07T12:06:05.901Z,37.50
2019-05-07T12:08:43.006Z,35.60
2019-05-07T12:11:04.648Z,32.90
2019-05-07T12:13:33.193Z,30.90
2019-05-07T12:16:02.925Z,31.20
2019-05-07T12:18:32.074Z,35.40
2019-05-07T12:21:03.743Z,37.10
2019-05-07T12:23:33.008Z,37.10
2019-05-07T12:26:02.278Z,38.40
2019-05-07T12:28:32.828Z,40.90
2019-05-07T12:31:02.963Z,39.40
2019-05-07T12:33:39.090Z,30.00
2019-05-07T12:36:09.401Z,30.00
2019-05-07T12:38:37.869Z,30.70
2019-05-07T12:41:24.211Z,33.60
2019-05-07T12:43:52.751Z,29.70
2019-05-07T12:46:22.350Z,30.70
2019-05-07T12:48:52.378Z,32.60
2019-05-07T12:51:33.117Z,30.80
2019-05-07T12:54:04.571Z,36.60
2019-05-07T12:56:33.068Z,32.20
2019-05-07T12:59:02.213Z,28.90
2019-05-07T13:01:42.191Z,29.60
2019-05-07T13:04:12.440Z,30.30
2019-05-07T13:06:45.380Z,28.30
2019-05-07T13:09:14.092Z,28.70
2019-05-07T13:11:42.648Z,32.60
2019-05-07T13:14:12.582Z,30.60
2019-05-07T13:16:41.170Z,33.20
2019-05-07T13:19:09.704Z,29.90
2019-05-07T13:21:49.058Z,29.00
2019-05-07T13:24:08.391Z,29.30
2019-05-07T13:26:36.893Z,28.70
2019-05-07T13:29:05.467Z,29.00
2019-05-07T13:31:35.668Z,28.10
2019-05-07T13:34:04.387Z,28.50
2019-05-07T13:36:35.268Z,27.00
2019-05-07T13:39:07.395Z,29.50
2019-05-07T13:41:43.646Z,33.60
2019-05-07T13:44:14.566Z,29.30
2019-05-07T13:46:44.962Z,33.90
2019-05-07T13:49:13.618Z,32.80
2019-05-07T13:51:42.238Z,32.80
2019-05-07T13:54:12.727Z,32.80
2019-05-07T13:56:41.938Z,33.20
2019-05-07T13:59:13.179Z,33.10
2019-05-07T14:01:45.661Z,36.20
2019-05-07T14:04:14.136Z,36.10
2019-05-07T14:06:43.115Z,36.70
2019-05-07T14:09:15.147Z,37.40
2019-05-07T14:11:43.781Z,36.00
2019-05-07T14:14:12.424Z,36.50
2019-05-07T14:16:44.702Z,37.70
2019-05-07T14:19:13.028Z,36.60
2019-05-07T14:21:42.186Z,36.10
2019-05-07T14:24:12.392Z,36.30
2019-05-07T14:26:42.262Z,36.80
2019-05-07T14:29:11.002Z,35.30
2019-05-07T14:31:39.493Z,32.90
2019-05-07T14:34:12.386Z,32.20
2019-05-07T14:36:42.625Z,31.00
2019-05-07T14:39:11.277Z,34.50
2019-05-07T14:41:39.836Z,37.20
2019-05-07T14:44:15.514Z,32.10
2019-05-07T14:46:50.936Z,31.90
2019-05-07T14:49:14.560Z,32.00
2019-05-07T14:51:43.122Z,33.90
2019-05-07T14:54:12.335Z,31.40
2019-05-07T14:56:42.833Z,33.00
2019-05-07T14:59:12.822Z,34.30
2019-05-07T15:01:43.006Z,33.90
2019-05-07T15:04:12.879Z,34.80
2019-05-07T15:06:41.612Z,33.60
2019-05-07T15:09:12.039Z,33.30
2019-05-07T15:11:42.339Z,31.90
2019-05-07T15:14:12.063Z,32.30
2019-05-07T15:16:42.698Z,35.60
2019-05-07T15:19:12.521Z,36.20
2019-05-07T15:21:42.556Z,36.20
2019-05-07T15:24:13.949Z,34.10
2019-05-07T15:26:42.420Z,36.10
2019-05-07T15:29:12.360Z,33.00
2019-05-07T15:31:42.568Z,35.10
2019-05-07T15:34:12.361Z,34.30
2019-05-07T15:36:42.369Z,31.70
2019-05-07T15:39:13.282Z,34.20
2019-05-07T15:41:42.520Z,35.00
2019-05-07T15:44:11.973Z,32.30
2019-05-07T15:46:42.666Z,34.00
2019-05-07T15:49:12.555Z,32.90
2019-05-07T15:51:41.841Z,35.40
2019-05-07T15:54:12.793Z,36.60
2019-05-07T15:56:41.135Z,35.20
2019-05-07T15:59:12.803Z,32.80
2019-05-07T16:01:42.030Z,33.10
2019-05-07T16:04:19.970Z,34.00
2019-05-07T16:06:42.442Z,34.00
2019-05-07T16:09:12.851Z,34.40
2019-05-07T16:11:43.027Z,34.50
2019-05-07T16:14:19.297Z,36.60
2019-05-07T16:16:48.148Z,33.10
2019-05-07T16:19:20.993Z,32.90
2019-05-07T16:21:48.686Z,34.30
2019-05-07T16:24:17.171Z,36.00
2019-05-07T16:26:45.648Z,35.30
2019-05-07T16:29:14.213Z,35.40
2019-05-07T16:31:44.247Z,35.00
2019-05-07T16:34:12.945Z,35.30
2019-05-07T16:36:42.018Z,35.90
2019-05-07T16:39:12.145Z,36.10
2019-05-07T16:41:42.251Z,35.50
2019-05-07T16:44:12.293Z,36.40
2019-05-07T16:46:42.188Z,36.10
2019-05-07T16:49:12.068Z,37.00
2019-05-07T16:51:41.909Z,36.70
2019-05-07T16:54:12.184Z,36.20
2019-05-07T16:56:42.726Z,36.20
2019-05-07T16:59:12.619Z,36.90
2019-05-07T17:01:42.870Z,37.10
2019-05-07T17:04:12.157Z,37.60
2019-05-07T17:06:42.608Z,36.90
2019-05-07T17:09:13.493Z,37.00
2019-05-07T17:11:43.732Z,37.10
2019-05-07T17:14:12.918Z,36.70
2019-05-07T17:16:41.632Z,38.20
2019-05-07T17:19:11.847Z,38.40
2019-05-07T17:21:40.438Z,37.60
2019-05-07T17:24:08.931Z,38.60
2019-05-07T17:26:37.404Z,38.40
2019-05-07T17:29:06.108Z,38.60
2019-05-07T17:31:34.680Z,39.40
2019-05-07T17:34:03.193Z,39.90
2019-05-07T17:36:33.053Z,39.90
2019-05-07T17:39:02.735Z,40.50
2019-05-07T17:41:32.213Z,40.70
2019-05-07T17:44:02.745Z,40.90
2019-05-07T17:46:32.381Z,41.10
2019-05-07T17:49:02.466Z,41.50
2019-05-07T17:51:43.737Z,41.40
2019-05-07T17:54:13.828Z,42.10
2019-05-07T17:56:43.442Z,42.10
2019-05-07T17:59:12.394Z,42.90
2019-05-07T18:01:53.001Z,43.40
2019-05-07T18:04:21.612Z,43.40
2019-05-07T18:06:52.045Z,43.80
2019-05-07T18:09:22.428Z,44.50
2019-05-07T18:11:52.210Z,43.90
2019-05-07T18:14:22.594Z,44.30
2019-05-07T18:16:58.271Z,45.50
2019-05-07T18:19:28.469Z,45.20
2019-05-07T18:21:57.077Z,45.20
2019-05-07T18:24:25.556Z,45.90
2019-05-07T18:26:54.056Z,48.10
2019-05-07T18:29:22.654Z,48.70
2019-05-07T18:31:55.712Z,48.80
2019-05-07T18:34:23.405Z,49.30
2019-05-07T18:36:53.071Z,49.20
2019-05-07T18:39:21.644Z,48.90
2019-05-07T18:41:52.152Z,49.80
2019-05-07T18:44:22.278Z,49.60
2019-05-07T18:46:52.701Z,50.60
2019-05-07T18:49:20.804Z,50.10
2019-05-07T18:51:49.296Z,52.70
2019-05-07T18:54:27.778Z,53.80
2019-05-07T18:56:48.045Z,55.10
2019-05-07T18:59:17.633Z,53.60
2019-05-07T19:01:46.210Z,53.30
2019-05-07T19:04:14.816Z,53.80
2019-05-07T19:06:43.310Z,54.20
2019-05-07T19:09:11.782Z,55.40
2019-05-07T19:11:42.538Z,54.80
2019-05-07T19:14:10.524Z,53.60
2019-05-07T19:16:39.018Z,52.90
2019-05-07T19:19:07.560Z,53.90
2019-05-07T19:21:36.061Z,53.50
2019-05-07T19:24:04.775Z,54.00
2019-05-07T19:26:33.276Z,54.70
2019-05-07T19:29:02.561Z,54.60
2019-05-07T19:31:32.522Z,54.70
2019-05-07T19:34:03.049Z,55.00
2019-05-07T19:36:32.185Z,55.20
2019-05-07T19:39:01.937Z,55.40
2019-05-07T19:41:32.090Z,55.90
2019-05-07T19:44:02.044Z,57.30
2019-05-07T19:46:30.657Z,57.20
2019-05-07T19:48:59.208Z,59.10
2019-05-07T19:51:27.701Z,58.50
2019-05-07T19:53:56.176Z,58.80
2019-05-07T19:56:25.341Z,59.90
2019-05-07T19:58:53.882Z,59.70
2019-05-07T20:01:24.212Z,59.80
2019-05-07T20:03:53.005Z,59.70
2019-05-07T20:06:23.375Z,58.20
2019-05-07T20:08:52.974Z,57.10
2019-05-07T20:11:32.638Z,57.90
2019-05-07T20:14:01.995Z,60.20
2019-05-07T20:16:32.959Z,60.70
2019-05-07T20:19:00.792Z,60.70
2019-05-07T20:21:32.615Z,59.10
2019-05-07T20:24:01.881Z,59.00
2019-05-07T20:26:32.623Z,59.20
2019-05-07T20:29:02.866Z,60.00
2019-05-07T20:31:32.922Z,59.30
2019-05-07T20:34:02.314Z,59.20
2019-05-07T20:36:32.726Z,58.90
2019-05-07T20:39:02.199Z,59.30
2019-05-07T20:41:32.888Z,58.50
2019-05-07T20:44:02.810Z,58.70
2019-05-07T20:46:32.040Z,58.60
2019-05-07T20:49:02.634Z,59.20
2019-05-07T20:51:32.553Z,59.10
2019-05-07T20:54:02.834Z,59.40
2019-05-07T20:56:41.998Z,59.70
2019-05-07T20:59:12.505Z,59.30
2019-05-07T21:01:41.961Z,59.30
2019-05-07T21:04:12.764Z,58.40
2019-05-07T21:06:42.966Z,58.30
2019-05-07T21:09:12.624Z,58.50
2019-05-07T21:11:43.113Z,58.50
2019-05-07T21:14:12.069Z,58.70
2019-05-07T21:16:42.513Z,58.80
2019-05-07T21:19:12.857Z,59.10
2019-05-07T21:21:42.227Z,59.50
2019-05-07T21:24:12.827Z,59.80
2019-05-07T21:26:42.343Z,59.90
2019-05-07T21:29:13.499Z,60.00
2019-05-07T21:31:43.125Z,60.10
2019-05-07T21:34:12.429Z,60.20
2019-05-07T21:36:43.270Z,60.00
2019-05-07T21:39:13.045Z,60.40
2019-05-07T21:41:42.597Z,60.30
2019-05-07T21:44:11.423Z,60.20
2019-05-07T21:46:42.195Z,60.30
2019-05-07T21:49:12.108Z,60.50
2019-05-07T21:51:40.284Z,60.90
2019-05-07T21:54:13.557Z,60.90
2019-05-07T21:56:49.722Z,61.10
2019-05-07T21:59:21.848Z,62.10
2019-05-07T22:01:52.637Z,61.00
2019-05-07T22:04:21.293Z,61.40
2019-05-07T22:06:52.161Z,61.50
2019-05-07T22:09:22.188Z,61.60
2019-05-07T22:11:53.538Z,61.70
2019-05-07T22:14:22.199Z,62.20
2019-05-07T22:16:54.233Z,62.50
2019-05-07T22:19:21.099Z,63.30
2019-05-07T22:21:49.636Z,63.30
2019-05-07T22:24:18.137Z,63.70
2019-05-07T22:26:46.740Z,64.00
2019-05-07T22:29:15.230Z,64.00
2019-05-07T22:31:45.420Z,64.60
2019-05-07T22:34:33.440Z,64.30
2019-05-07T22:37:03.290Z,64.70
2019-05-07T22:39:32.711Z,65.00
2019-05-07T22:42:02.368Z,64.80
2019-05-07T22:44:32.181Z,64.90
2019-05-07T22:47:02.487Z,64.50
2019-05-07T22:49:33.191Z,64.30
2019-05-07T22:52:02.405Z,64.40
2019-05-07T22:54:31.947Z,64.10
2019-05-07T22:57:03.089Z,64.10
2019-05-07T22:59:32.804Z,64.30
2019-05-07T23:02:03.121Z,64.30
2019-05-07T23:04:32.522Z,64.10
2019-05-07T23:07:02.179Z,64.50
2019-05-07T23:09:30.894Z,64.20
2019-05-07T23:12:01.718Z,63.60
2019-05-07T23:14:29.645Z,63.50
2019-05-07T23:16:58.112Z,63.70
2019-05-07T23:19:26.610Z,63.60
2019-05-07T23:21:55.085Z,63.50
2019-05-07T23:24:24.985Z,62.90
2019-05-07T23:26:53.906Z,63.00
2019-05-07T23:29:22.818Z,62.90
2019-05-07T23:31:52.920Z,63.10
2019-05-07T23:34:22.143Z,63.10
2019-05-07T23:36:53.073Z,62.80
2019-05-07T23:39:22.627Z,63.10
2019-05-07T23:41:58.253Z,63.40
2019-05-07T23:44:26.884Z,63.40
2019-05-07T23:46:55.356Z,63.30
2019-05-07T23:49:23.820Z,63.70
2019-05-07T23:51:53.113Z,64.00
2019-05-07T23:54:22.964Z,63.60
2019-05-07T23:57:05.076Z,63.30
2019-05-07T23:59:22.434Z,62.90
